Time;durP1;ratioP1;P1;durP2;ratioP2;P2;SDS_P1;SDS_P2;PMS_P1;PMS_P2;Temp;Humidity;BMP_temperature;BMP_pressure;BME280_temperature;BME280_humidity;BME280_pressure;Samples;Min_cycle;Max_cycle;Signal;HPM_P1;HPM_P2
2023/05/09 08:28:33;;;;;;;;;;;;;;;;;;4915219;29;19927;-75
2023/05/09 08:30:59;;;;;;;;;;;;;;;;;;4918352;29;19919;-76
2023/05/09 08:33:24;;;;;;;;;;;;;;;;;;4918373;29;19915;-76
2023/05/09 08:35:53;;;;;;;;;;;;;;;;;;4918078;29;19915;-78
2023/05/09 08:38:18;;;;;;;;;;;;;;;;;;4917974;29;19915;-76
2023/05/09 08:40:43;;;;;;;;;;;;;;;;;;4918432;29;19921;-76
2023/05/09 08:43:10;;;;;;;;;;;;;;;;;;4918360;29;19919;-76
2023/05/09 08:45:41;;;;;;;;;;;;;;;;;;4918013;29;19915;-79
2023/05/09 08:48:07;;;;;;;;;;;;;;;;;;4918068;29;19915;-76
2023/05/09 08:50:34;;;;;;;;;;;;;;;;;;4917652;29;20009;-76
2023/05/09 08:53:00;;;;;;;;;;;;;;;;;;4918064;29;19963;-75
2023/05/09 08:55:25;;;;;;;;;;;;;;;;;;4917647;29;20326;-77
2023/05/09 08:57:51;;;;;;;;;;;;;;;;;;4917856;29;19971;-78
2023/05/09 09:00:19;;;;;;;;;;;;;;;;;;4917956;29;19926;-77
2023/05/09 09:02:44;;;;;;;;;;;;;;;;;;4917772;29;19962;-77
2023/05/09 09:05:10;;;;;;;;;;;;;;;;;;4917618;29;19950;-77
2023/05/09 09:07:35;;;;;;;;;;;;;;;;;;4917753;29;19915;-78
2023/05/09 09:10:02;;;;;;;;;;;;;;;;;;4917763;29;19922;-77
2023/05/09 09:12:28;;;;;;;;;;;;;;;;;;4917869;29;19915;-78
2023/05/09 09:14:55;;;;;;;11.80;10.57;;;;;;;;;;4917452;29;20374;-76
2023/05/09 09:17:27;;;;;;;13.02;10.80;;;;;;;;;;4915939;29;20118;-76
2023/05/09 09:19:57;;;;;;;13.57;12.18;;;;;;;;;;4917091;29;20032;-77
2023/05/09 09:22:22;;;;;;;;;;;;;;;;;;4920639;29;20028;-76
2023/05/09 09:24:49;;;;;;;15.00;13.38;;;;;;;;;;4921065;29;19915;-76
2023/05/09 09:27:14;;;;;;;17.95;14.57;;;;;;;;;;4921267;29;20483;-76
2023/05/09 09:29:40;;;;;;;15.13;13.00;;;;;;;;;;4938261;29;20055;-77
2023/05/09 09:32:06;;;;;;;15.45;12.80;;;;;;;;;;4939747;29;20505;-76
2023/05/09 09:34:31;;;;;;;13.30;12.00;;;;;;;;;;4940066;29;20087;-76
2023/05/09 09:36:57;;;;;;;17.95;14.50;;;;;;;;;;4939907;29;20443;-76
2023/05/09 09:39:22;;;;;;;17.80;15.13;;;;;;;;;;4939767;29;20087;-77
2023/05/09 09:41:48;;;;;;;15.20;13.43;;;;;;;;;;4939907;29;20059;-75
2023/05/09 09:44:15;;;;;;;14.80;12.98;;;;;;;;;;4939719;29;20031;-77
2023/05/09 09:46:47;;;;;;;40.60;28.45;;;;;;;;;;4939814;29;20074;-77
2023/05/09 09:49:13;;;;;;;21.42;18.15;;;;;;;;;;4939743;29;20026;-78
2023/05/09 09:51:39;;;;;;;;;;;;;;;;;;4940155;29;20111;-79
2023/05/09 09:54:08;;;;;;;;;;;;;;;;;;4940004;29;19946;-78
2023/05/09 09:56:37;;;;;;;;;;;;;;;;;;4939875;29;20392;-77
2023/05/09 09:59:10;;;;;;;;;;;;;;;;;;4939690;29;20393;-78
2023/05/09 10:01:51;;;;;;;;;;;;;;;;;;4939770;29;20373;-77
2023/05/09 10:04:16;;;;;;;;;;;;;;;;;;4940023;29;19914;-76
2023/05/09 10:06:50;;;;;;;;;;;;;;;;;;4939693;29;19937;-76
2023/05/09 10:09:15;;;;;;;;;;;;;;;;;;4939753;29;20278;-75
2023/05/09 10:11:41;;;;;;;;;;;;;;;;;;4939602;29;19922;-75
2023/05/09 10:14:07;;;;;;;;;;;;;;;;;;4939802;29;20384;-73
2023/05/09 10:16:32;;;;;;;;;;;;;;;;;;4939746;29;19915;-75
2023/05/09 10:18:57;;;;;;;;;;;;;;;;;;4939609;29;19922;-75
2023/05/09 10:21:23;;;;;;;;;;;;;;;;;;4939949;29;20043;-75
2023/05/09 10:23:51;;;;;;;;;;;;;;;;;;4939421;29;19922;-76
2023/05/09 10:26:19;;;;;;;;;;;;;;;;;;4939198;29;19915;-76
2023/05/09 10:28:47;;;;;;;;;;;;;;;;;;4939233;29;19926;-76
2023/05/09 10:31:23;;;;;;;;;;;;;;;;;;4939414;29;19921;-76
2023/05/09 10:33:49;;;;;;;;;;;;;;;;;;4939036;29;19970;-75
2023/05/09 10:36:16;;;;;;;;;;;;;;;;;;4939352;29;19914;-77
2023/05/09 10:38:42;;;;;;;;;;;;;;;;;;4939294;29;19962;-76
2023/05/09 10:41:09;;;;;;;;;;;;;;;;;;4939592;29;19922;-76
2023/05/09 10:43:35;;;;;;;;;;;;;;;;;;4939016;29;20014;-76
2023/05/09 10:46:00;;;;;;;;;;;;;;;;;;4921989;29;19946;-76
2023/05/09 10:48:26;;;;;;;;;;;;;;;;;;4939272;29;20344;-75
2023/05/09 10:50:52;;;;;;;;;;;;;;;;;;4939249;29;19921;-74
2023/05/09 10:53:17;;;;;;;;;;;;;;;;;;4938838;29;19970;-75
2023/05/09 10:55:45;;;;;;;;;;;;;;;;;;4938924;29;19915;-75
2023/05/09 10:58:28;;;;;;;;;;;;;;;;;;4939100;29;19914;-75
2023/05/09 11:00:58;;;;;;;;;;;;;;;;;;4938951;29;20347;-75
2023/05/09 11:03:24;;;;;;;;;;;;;;;;;;4938954;29;19919;-75
2023/05/09 11:05:53;;;;;;;;;;;;;;;;;;4938565;29;19918;-75
2023/05/09 11:08:22;;;;;;;;;;;;;;;;;;4938642;29;19914;-77
2023/05/09 11:10:47;;;;;;;;;;;;;;;;;;4938432;29;20354;-75
2023/05/09 11:13:16;;;;;;;;;;;;;;;;;;4938699;29;19921;-75
2023/05/09 11:16:00;;;;;;;;;;;;;;;;;;4938570;29;19953;-75
2023/05/09 11:18:26;;;;;;;;;;;;;;;;;;4938437;29;19977;-76
2023/05/09 11:20:51;;;;;;;;;;;;;;;;;;4938224;29;19910;-75
2023/05/09 11:23:20;;;;;;;;;;;;;;;;;;4938416;29;19961;-75
2023/05/09 11:25:46;;;;;;;;;;;;;;;;;;4938331;29;20005;-75
2023/05/09 11:28:32;;;;;;;;;;;;;;;;;;4938047;29;20042;-75
2023/05/09 11:31:10;;;;;;;;;;;;;;;;;;4937244;29;20017;-76
2023/05/09 11:33:35;;;;;;;;;;;;;;;;;;4938165;29;20061;-73
2023/05/09 11:36:19;;;;;;;;;;;;;;;;;;4938311;29;19951;-73
2023/05/09 11:38:47;;;;;;;;;;;;;;;;;;4938133;29;19911;-73
2023/05/09 11:41:12;;;;;;;;;;;;;;;;;;4938047;29;19914;-73
2023/05/09 11:43:38;;;;;;;;;;;;;;;;;;4937670;29;19961;-73
2023/05/09 11:46:03;;;;;;;;;;;;;;;;;;4937597;29;19925;-73
2023/05/09 17:03:01;;;;;;;;;;;;;;;;;;4933420;29;19919;-73
2023/05/09 17:05:27;;;;;;;;;;;;;;;;;;4936291;29;19930;-74
2023/05/09 17:07:52;;;;;;;;;;;;;;;;;;4936531;29;19969;-74
2023/05/09 17:10:18;;;;;;;;;;;;;;;;;;4918256;29;20005;-72
2023/05/09 17:12:43;;;;;;;;;;;;;;;;;;4917469;29;19915;-73
2023/05/09 17:15:10;;;;;;;;;;;;;;;;;;4917491;29;20006;-74
2023/05/09 17:17:36;;;;;;;;;;;;;;;;;;4917112;29;19959;-77
2023/05/09 17:20:03;;;;;;;;;;;;;;;;;;4917338;29;20009;-75
2023/05/09 17:22:28;;;;;;;;;;;;;;;;;;4917435;29;19950;-73
2023/05/09 17:24:53;;;;;;;;;;;;;;;;;;4917483;29;20343;-74
2023/05/09 17:27:19;;;;;;;;;;;;;;;;;;4917337;29;19919;-74
2023/05/09 17:29:44;;;;;;;;;;;;;;;;;;4917215;29;19915;-74
2023/05/09 17:32:10;;;;;;;;;;;;;;;;;;4917381;29;19915;-74
2023/05/09 17:34:36;;;;;;;;;;;;;;;;;;4917346;29;19922;-75
2023/05/09 17:37:04;;;;;;;;;;;;;;;;;;4934119;29;19962;-73
2023/05/09 17:39:30;;;;;;;;;;;;;;;;;;4936200;29;19921;-75
2023/05/09 17:41:55;;;;;;;;;;;;;;;;;;4936625;29;19919;-84
2023/05/09 17:44:20;;;;;;;;;;;;;;;;;;4940045;29;20442;-74
2023/05/09 17:46:46;;;;;;;;;;;;;;;;;;4939845;29;19915;-80
2023/05/09 17:49:12;;;;;;;;;;;;;;;;;;4939844;29;19910;-75
2023/05/09 17:51:38;;;;;;;;;;;;;;;;;;4940419;29;19915;-75
2023/05/09 17:54:04;;;;;;;;;;;;;;;;;;4934245;29;19915;-75
2023/05/09 17:56:30;;;;;;;;;;;;;;;;;;4906344;29;19954;-75
2023/05/09 17:58:55;;;;;;;;;;;;;;;;;;4920622;29;20341;-75
2023/05/09 18:01:21;;;;;;;;;;;;;;;;;;4920596;29;19915;-76
2023/05/09 18:03:46;;;;;;;;;;;;;;;;;;4920466;29;19939;-76
2023/05/09 18:06:13;;;;;;;;;;;;;;;;;;4920768;29;19946;-76
2023/05/09 18:08:38;;;;;;;;;;;;;;;;;;4920445;29;20278;-76
2023/05/09 18:11:03;;;;;;;;;;;;;;;;;;4920332;29;19922;-83
2023/05/09 18:13:28;;;;;;;;;;;;;;;;;;4920587;29;19922;-75
2023/05/09 18:16:00;;;;;;;;;;;;;;;;;;4920561;29;20374;-74
2023/05/09 18:18:31;;;;;;;;;;;;;;;;;;4920481;29;19923;-80
2023/05/09 18:20:57;;;;;;;;;;;;;;;;;;4920254;29;19915;-74
2023/05/09 18:23:24;;;;;;;;;;;;;;;;;;4920419;29;19915;-75
2023/05/09 18:25:50;;;;;;;;;;;;;;;;;;4920396;29;19957;-74
2023/05/09 18:28:21;;;;;;;;;;;;;;;;;;4920226;29;19919;-75
2023/05/09 18:30:47;;;;;;;;;;;;;;;;;;4920134;29;19919;-75
2023/05/09 18:33:12;;;;;;;;;;;;;;;;;;4920113;29;20017;-74
2023/05/09 18:35:37;;;;;;;;;;;;;;;;;;4920405;29;20318;-75
2023/05/09 18:38:02;;;;;;;;;;;;;;;;;;4920334;29;19922;-86
2023/05/09 18:40:28;;;;;;;;;;;;;;;;;;4920171;29;19915;-74
2023/05/09 18:42:53;;;;;;;;;;;;;;;;;;4903110;29;20319;-74
2023/05/09 18:45:19;;;;;;;;;;;;;;;;;;4919918;29;19924;-78
2023/05/09 18:47:44;;;;;;;;;;;;;;;;;;4919955;29;19967;-79
2023/05/09 18:50:12;;;;;;;;;;;;;;;;;;4920001;29;19911;-78
2023/05/09 18:52:37;;;;;;;;;;;;;;;;;;4918464;29;19975;-77
2023/05/09 18:55:04;;;;;;;;;;;;;;;;;;4903306;29;19915;-78
2023/05/09 18:57:29;;;;;;;;;;;;;;;;;;4920304;29;20009;-80
2023/05/09 18:59:55;;;;;;;;;;;;;;;;;;4919896;29;19965;-81
2023/05/09 19:02:21;;;;;;;;;;;;;;;;;;4920046;29;20362;-85
2023/05/09 19:04:47;;;;;;;;;;;;;;;;;;4920027;29;19919;-76
2023/05/09 19:07:13;;;;;;;;;;;;;;;;;;4919970;29;19923;-81
2023/05/09 19:09:39;;;;;;;;;;;;;;;;;;4919908;29;19915;-77
2023/05/09 19:12:04;;;;;;;;;;;;;;;;;;4903231;29;20376;-78
2023/05/09 19:14:30;;;;;;;;;;;;;;;;;;4920176;29;20286;-78
2023/05/09 19:16:55;;;;;;;;;;;;;;;;;;4919876;29;20390;-84
2023/05/09 19:19:20;;;;;;;;;;;;;;;;;;4919759;29;19916;-78
2023/05/09 19:21:45;;;;;;;;;;;;;;;;;;4919934;29;19918;-77
2023/05/09 19:24:11;;;;;;;;;;;;;;;;;;4919694;29;19919;-77
2023/05/09 19:26:36;;;;;;;;;;;;;;;;;;4919614;29;19915;-86
2023/05/09 19:29:06;;;;;;;;;;;;;;;;;;4919579;29;19927;-81
2023/05/09 19:31:32;;;;;;;;;;;;;;;;;;4919901;29;19915;-89
2023/05/09 19:33:57;;;;;;;;;;;;;;;;;;4919489;29;19965;-93
2023/05/09 19:36:22;;;;;;;;;;;;;;;;;;4919458;29;19915;-88
2023/05/09 19:38:47;;;;;;;;;;;;;;;;;;4927002;29;19914;-80
2023/05/09 19:41:13;;;;;;;;;;;;;;;;;;4936600;29;20251;-78
2023/05/09 19:43:38;;;;;;;;;;;;;;;;;;4938366;29;19922;-79
2023/05/09 19:46:03;;;;;;;;;;;;;;;;;;4938220;29;19921;-82
2023/05/09 19:48:29;;;;;;;;;;;;;;;;;;4938298;29;20270;-77
2023/05/09 19:50:55;;;;;;;;;;;;;;;;;;4938456;29;19965;-76
2023/05/09 19:53:20;;;;;;;;;;;;;;;;;;4940948;29;19914;-77
2023/05/09 19:55:46;;;;;;;;;;;;;;;;;;4938019;29;20289;-77
2023/05/09 19:58:14;;;;;;;;;;;;;;;;;;4937732;29;19921;-77
2023/05/09 20:00:39;;;;;;;;;;;;;;;;;;4938104;29;19915;-78
2023/05/09 20:03:04;;;;;;;;;;;;;;;;;;4937514;29;20005;-78
2023/05/09 20:05:29;;;;;;;;;;;;;;;;;;4937456;29;19915;-77
2023/05/09 20:07:55;;;;;;;;;;;;;;;;;;4937550;29;19918;-77
2023/05/09 20:10:20;;;;;;;;;;;;;;;;;;4937573;29;20362;-78
2023/05/09 20:12:46;;;;;;;;;;;;;;;;;;4926929;29;19919;-77
2023/05/09 20:15:12;;;;;;;;;;;;;;;;;;4920083;29;19915;-87
2023/05/09 20:17:37;;;;;;;;;;;;;;;;;;4918125;29;19969;-87
2023/05/09 20:20:03;;;;;;;;;;;;;;;;;;4918403;29;19942;-87
2023/05/09 20:22:28;;;;;;;;;;;;;;;;;;4918217;29;19921;-88
2023/05/09 20:24:53;;;;;;;;;;;;;;;;;;4918183;29;19970;-86
2023/05/09 20:27:18;;;;;;;;;;;;;;;;;;4918163;29;20355;-87
2023/05/09 20:29:44;;;;;;;;;;;;;;;;;;4917990;29;20014;-87
2023/05/09 20:32:10;;;;;;;;;;;;;;;;;;4918072;29;19915;-88
2023/05/09 20:34:35;;;;;;;;;;;;;;;;;;4918206;29;19970;-85
2023/05/09 20:37:01;;;;;;;;;;;;;;;;;;4918122;29;19911;-86
2023/05/09 20:39:26;;;;;;;;;;;;;;;;;;4917810;29;20333;-77
2023/05/09 20:41:51;;;;;;;;;;;;;;;;;;4917978;29;19918;-87
2023/05/09 20:44:17;;;;;;;;;;;;;;;;;;4918099;29;19921;-87
2023/05/09 20:46:46;;;;;;;;;;;;;;;;;;4918024;29;19937;-88
2023/05/09 20:49:11;;;;;;;;;;;;;;;;;;4917920;29;19922;-84
2023/05/09 20:51:37;;;;;;;;;;;;;;;;;;4917804;29;20358;-85
2023/05/09 20:54:02;;;;;;;;;;;;;;;;;;4918496;29;19970;-87
2023/05/09 20:56:28;;;;;;;;;;;;;;;;;;4917668;29;19922;-87
2023/05/09 20:58:59;;;;;;;;;;;;;;;;;;4917973;29;19915;-88
2023/05/09 21:01:25;;;;;;;;;;;;;;;;;;4917724;29;19978;-83
2023/05/09 21:03:51;;;;;;;;;;;;;;;;;;4917775;29;20370;-87
2023/05/09 21:06:16;;;;;;;;;;;;;;;;;;4917690;29;19915;-85
2023/05/09 21:08:42;;;;;;;;;;;;;;;;;;4917628;29;19915;-76
2023/05/09 21:11:07;;;;;;;;;;;;;;;;;;4917637;29;19971;-80
2023/05/09 21:13:32;;;;;;;;;;;;;;;;;;4917770;29;19923;-76
2023/05/09 21:15:58;;;;;;;;;;;;;;;;;;4917885;29;20039;-81
2023/05/09 21:18:23;;;;;;;;;;;;;;;;;;4917226;29;20378;-83
2023/05/09 21:20:49;;;;;;;;;;;;;;;;;;4917781;29;19922;-84
2023/05/09 21:23:14;;;;;;;;;;;;;;;;;;4917476;29;19919;-85
